Главная страница
METAR-TAF:

METAR-TAF

Аэропорты :

Wellsville Municipal Airport (Tarantine Field)

Wellsville, Нью-Йорк, США

широта: 42-06-27N, долгота: 077-59-04W, высота над уровнем моря: 647 м

Текущие метеонаблюдения

Эта сводка был подготовлена 1 час и 7 минут назад, в 15:56 UTC
Ветер 6 Узел переменных направлений
Температура 21°C
Влажность 78%
Давление 1013 hPa
Видимость: 16.1 км
небольшая облачность на высоте 1900 фута
Отдельные облака на высоте 3300 фута

METAR: KELZ 121556Z AUTO VRB06KT 10SM FEW019 SCT033 21/17 A2992 RMK AO2 SLP122 T02110167

Время: 13:03 (17:03 UTC)


TAF: отсутствует

Метеонаблюдения и прогнозы для более 4000 аэропортов (сводки METAR и TAF).

Имеющиеся станции представлены на карте желтыми и красными точками.

Чтобы увидеть название станции, наведите на нее мышь.

Затем щелкните, чтобы увидеть метеонаблюдения и метеопрогнозы.

Управление картой: чтобы увеличить масштаб, щелкните зеленые кнопки с черным крестиком; чтобы уменьшить масштаб, щелкните зеленую кнопку с тире; для просмотра соседних карт щелкайте зеленые стрелки.


METAR-TAF: